Decoded Metar for UUMO ( in ) (IATA:) | Meteo·Mobile Aviation Weather
aviador You're here:

UUMO Decoded Metar

in
Report Time2018-12-16 16:00:00
UTC Time2018-12-16 16:17:01
Flight Rules ifr IFR
Wind110° at 4 kt
W.Decomp.*RWY 08: 3.5 kt HW 2.0 kt RCW
W.Rank110° ranks 21
Current wind is below 110° avg. (7.0)
Visibility3000 m
Phenomena:Mist
Clouds:N/A
Expected CloudBase > 400 ft AGL from Temp-Dew spread
CeilingNone
Temp-14°C
Dew Point-15°C (92% RH)
AAT-18.8°C
QNH1037 hPa
Raw Report
METAR UUMO 161600Z 11002MPS 3000 BR NSC M14/M15 Q1037 R26/190055
NOSIG RMK QFE762/1016=

Extra information for UUMO:More info

Social comments